createdAt,value
2023-04-13T00:01:37.049Z,77.50
2023-04-13T00:04:10.059Z,78.02
2023-04-13T00:06:47.020Z,77.89
2023-04-13T00:09:20.065Z,77.62
2023-04-13T00:11:52.785Z,77.69
2023-04-13T00:14:27.640Z,77.94
2023-04-13T00:17:00.446Z,77.81
2023-04-13T00:19:33.465Z,77.82
2023-04-13T00:22:09.710Z,78.04
2023-04-13T00:24:44.144Z,78.14
2023-04-13T00:27:16.853Z,78.00
2023-04-13T00:29:50.091Z,78.04
2023-04-13T00:32:22.753Z,78.19
2023-04-13T00:34:55.413Z,78.59
2023-04-13T00:37:30.445Z,78.58
2023-04-13T00:40:03.681Z,78.39
2023-04-13T00:42:36.666Z,78.80
2023-04-13T00:45:09.742Z,78.33
2023-04-13T00:47:43.372Z,78.40
2023-04-13T00:50:17.780Z,78.73
2023-04-13T00:52:51.884Z,78.83
2023-04-13T00:55:25.176Z,78.28
2023-04-13T00:57:59.428Z,78.28
2023-04-13T01:00:32.315Z,78.58
2023-04-13T01:03:05.180Z,78.46
2023-04-13T01:05:41.324Z,78.63
2023-04-13T01:08:19.419Z,78.21
2023-04-13T01:10:55.316Z,77.31
2023-04-13T01:13:32.085Z,76.86
2023-04-13T01:16:07.687Z,76.64
2023-04-13T01:18:41.776Z,76.39
2023-04-13T01:21:16.210Z,76.65
2023-04-13T01:23:57.777Z,76.24
2023-04-13T01:26:37.158Z,76.34
2023-04-13T01:29:11.301Z,76.22
2023-04-13T01:31:44.328Z,76.37
2023-04-13T01:34:17.112Z,76.29
2023-04-13T01:36:49.772Z,76.81
2023-04-13T01:39:25.515Z,76.72
2023-04-13T01:41:58.412Z,77.05
2023-04-13T01:44:34.870Z,77.03
2023-04-13T01:47:16.537Z,77.28
2023-04-13T01:49:52.510Z,77.53
2023-04-13T01:52:27.919Z,77.52
2023-04-13T01:55:01.716Z,77.66
2023-04-13T01:57:36.161Z,77.76
2023-04-13T02:00:14.466Z,77.73
2023-04-13T02:02:47.381Z,77.74
2023-04-13T02:05:20.197Z,77.76
2023-04-13T02:07:52.885Z,77.48
2023-04-13T02:10:26.467Z,77.60
2023-04-13T02:12:59.413Z,77.53
2023-04-13T02:15:35.546Z,77.63
2023-04-13T02:18:08.556Z,77.61
2023-04-13T02:20:44.753Z,77.23
2023-04-13T02:23:18.014Z,77.19
2023-04-13T02:25:50.749Z,77.00
2023-04-13T02:28:24.004Z,77.05
2023-04-13T02:30:59.840Z,77.14
2023-04-13T02:33:33.058Z,76.70
2023-04-13T02:36:06.774Z,76.52
2023-04-13T02:38:39.507Z,76.61
2023-04-13T02:41:12.570Z,76.63
2023-04-13T02:43:45.433Z,76.37
2023-04-13T02:46:19.514Z,76.53
2023-04-13T02:48:52.543Z,76.56
2023-04-13T02:51:25.209Z,76.46
2023-04-13T02:53:58.834Z,76.51
2023-04-13T02:56:31.860Z,76.34
2023-04-13T02:59:06.475Z,76.54
2023-04-13T03:01:42.256Z,76.42
2023-04-13T03:04:15.142Z,76.20
2023-04-13T03:06:49.038Z,75.92
2023-04-13T03:09:21.805Z,76.18
2023-04-13T03:11:56.252Z,76.32
2023-04-13T03:14:30.177Z,75.90
2023-04-13T03:17:04.978Z,76.43
2023-04-13T03:19:37.806Z,75.70
2023-04-13T03:22:11.271Z,75.91
2023-04-13T03:24:44.100Z,76.25
2023-04-13T03:27:17.310Z,75.72
2023-04-13T03:29:49.984Z,74.51
2023-04-13T03:32:24.194Z,74.90
2023-04-13T03:34:56.996Z,75.25
2023-04-13T03:37:32.454Z,75.48
2023-04-13T03:40:05.709Z,75.37
2023-04-13T03:42:38.473Z,75.37
2023-04-13T03:45:11.778Z,75.88
2023-04-13T03:47:46.050Z,75.46
2023-04-13T03:50:19.359Z,75.57
2023-04-13T03:52:52.198Z,75.53
2023-04-13T03:55:24.975Z,75.46
2023-04-13T03:57:57.755Z,75.52
2023-04-13T04:00:30.431Z,74.95
2023-04-13T04:03:04.570Z,75.44
2023-04-13T04:05:38.886Z,75.25
2023-04-13T04:08:11.670Z,75.18
2023-04-13T04:10:44.422Z,75.38
2023-04-13T04:13:17.023Z,74.85
2023-04-13T04:15:49.806Z,75.40
2023-04-13T04:18:24.508Z,74.63
2023-04-13T04:20:57.332Z,74.87
2023-04-13T04:23:30.083Z,74.59
2023-04-13T04:26:03.190Z,74.85
2023-04-13T04:28:38.670Z,75.00
2023-04-13T04:31:11.785Z,75.10
2023-04-13T04:33:47.036Z,74.92
2023-04-13T04:36:21.020Z,75.24
2023-04-13T04:38:58.061Z,75.10
2023-04-13T04:41:31.476Z,74.97
2023-04-13T04:44:04.594Z,75.08
2023-04-13T04:46:38.851Z,74.84
2023-04-13T04:49:13.321Z,75.12
2023-04-13T04:51:46.074Z,75.00
2023-04-13T04:54:19.801Z,75.10
2023-04-13T04:56:52.689Z,75.02
2023-04-13T04:59:25.513Z,75.32
2023-04-13T05:01:58.238Z,74.82
2023-04-13T05:04:33.530Z,75.02
2023-04-13T05:07:06.212Z,74.83
2023-04-13T05:09:39.120Z,74.87
2023-04-13T05:12:11.929Z,74.94
2023-04-13T05:14:48.174Z,74.85
2023-04-13T05:17:20.905Z,75.06
2023-04-13T05:19:54.933Z,75.12
2023-04-13T05:22:27.756Z,75.20
2023-04-13T05:25:00.507Z,75.31
2023-04-13T05:27:33.378Z,75.19
2023-04-13T05:30:06.628Z,75.68
2023-04-13T05:32:39.349Z,75.76
2023-04-13T05:35:13.604Z,75.64
2023-04-13T05:37:46.848Z,75.98
2023-04-13T05:40:19.497Z,75.47
2023-04-13T05:42:52.117Z,76.08
2023-04-13T05:45:24.799Z,75.88
2023-04-13T05:47:57.618Z,75.80
2023-04-13T05:50:32.131Z,75.81
2023-04-13T05:53:05.832Z,76.41
2023-04-13T05:55:39.129Z,75.95
2023-04-13T05:58:12.161Z,76.61
2023-04-13T06:00:44.946Z,76.47
2023-04-13T06:03:20.609Z,76.05
2023-04-13T06:05:54.847Z,76.82
2023-04-13T06:08:32.742Z,76.50
2023-04-13T06:11:06.552Z,75.86
2023-04-13T06:13:41.236Z,77.31
2023-04-13T06:16:13.976Z,77.59
2023-04-13T06:18:46.975Z,77.60
2023-04-13T06:21:21.534Z,76.63
2023-04-13T06:23:54.415Z,77.39
2023-04-13T06:26:28.353Z,76.57
2023-04-13T06:29:02.660Z,76.21
2023-04-13T06:31:35.499Z,75.17
2023-04-13T06:34:08.561Z,75.40
2023-04-13T06:36:43.033Z,75.58
2023-04-13T06:39:15.893Z,75.87
2023-04-13T06:41:49.018Z,75.15
2023-04-13T06:44:21.710Z,76.00
2023-04-13T06:46:54.541Z,75.40
2023-04-13T06:49:28.156Z,74.91
2023-04-13T06:52:02.343Z,75.35
2023-04-13T06:54:36.151Z,74.80
2023-04-13T06:57:08.827Z,74.70
2023-04-13T06:59:41.506Z,74.47
2023-04-13T07:02:14.222Z,74.17
2023-04-13T07:04:47.127Z,74.18
2023-04-13T07:07:21.726Z,73.93
2023-04-13T07:09:54.414Z,74.88
2023-04-13T07:12:27.494Z,75.32
2023-04-13T07:15:00.861Z,75.22
2023-04-13T07:17:33.900Z,75.93
2023-04-13T07:20:07.909Z,75.92
2023-04-13T07:22:42.720Z,76.44
2023-04-13T07:25:15.857Z,76.76
2023-04-13T07:27:48.503Z,77.05
2023-04-13T07:30:21.523Z,77.02
2023-04-13T07:32:54.272Z,76.89
2023-04-13T07:35:27.139Z,77.32
2023-04-13T07:38:01.438Z,77.83
2023-04-13T07:40:35.867Z,78.00
2023-04-13T07:43:08.515Z,76.68
2023-04-13T07:45:41.227Z,76.94
2023-04-13T07:48:13.916Z,77.73
2023-04-13T07:50:46.911Z,77.70
2023-04-13T07:53:21.107Z,77.89
2023-04-13T07:55:53.875Z,78.27
2023-04-13T07:58:27.289Z,78.69
2023-04-13T08:01:00.027Z,78.20
2023-04-13T08:03:33.057Z,79.07
2023-04-13T08:06:07.568Z,78.63
2023-04-13T08:08:41.878Z,77.74
2023-04-13T08:11:14.655Z,77.73
2023-04-13T08:13:47.478Z,77.34
2023-04-13T08:16:20.222Z,76.58
2023-04-13T08:18:53.102Z,75.45
2023-04-13T08:21:26.630Z,76.13
2023-04-13T08:24:01.425Z,77.33
2023-04-13T08:26:34.075Z,76.84
2023-04-13T08:29:06.688Z,75.99
2023-04-13T08:31:40.737Z,71.13
2023-04-13T08:34:14.202Z,73.89
2023-04-13T08:36:47.901Z,73.13
2023-04-13T08:39:22.191Z,73.14
2023-04-13T08:41:55.072Z,73.11
2023-04-13T08:44:28.460Z,71.98
2023-04-13T08:47:01.531Z,66.87
2023-04-13T08:49:35.219Z,69.53
2023-04-13T08:52:09.047Z,72.00
2023-04-13T08:54:43.225Z,73.16
2023-04-13T08:57:16.967Z,72.89
2023-04-13T08:59:51.720Z,74.20
2023-04-13T09:02:26.550Z,74.50
2023-04-13T09:05:01.007Z,75.94
2023-04-13T09:07:36.827Z,74.52
2023-04-13T09:10:11.839Z,74.77
2023-04-13T09:12:44.474Z,75.09
2023-04-13T09:15:17.085Z,71.43
2023-04-13T09:17:50.681Z,71.37
2023-04-13T09:20:24.512Z,70.80
2023-04-13T09:22:57.504Z,70.94
2023-04-13T09:25:31.708Z,71.37
2023-04-13T09:28:08.735Z,72.04
2023-04-13T09:30:41.479Z,71.57
2023-04-13T09:33:15.922Z,73.82
2023-04-13T09:35:48.657Z,72.95
2023-04-13T09:38:31.237Z,74.85
2023-04-13T09:41:05.321Z,75.15
2023-04-13T09:43:38.671Z,75.11
2023-04-13T09:46:14.999Z,76.54
2023-04-13T09:48:48.415Z,75.53
2023-04-13T09:51:21.109Z,75.86
2023-04-13T09:53:54.617Z,75.27
2023-04-13T09:56:29.031Z,74.72
2023-04-13T09:59:01.919Z,75.84
2023-04-13T10:01:35.594Z,74.67
2023-04-13T10:04:09.961Z,75.13
2023-04-13T10:06:44.892Z,74.01
2023-04-13T10:09:17.688Z,74.63
2023-04-13T10:11:52.525Z,74.23
2023-04-13T10:14:27.061Z,74.62
2023-04-13T10:17:08.430Z,74.16
2023-04-13T10:19:43.553Z,74.66
2023-04-13T10:22:17.279Z,74.63
2023-04-13T10:24:50.423Z,73.42
2023-04-13T10:27:24.645Z,73.92
2023-04-13T10:29:57.731Z,73.37
2023-04-13T10:32:32.184Z,73.81
2023-04-13T10:35:10.157Z,73.81
2023-04-13T10:37:45.622Z,74.56
2023-04-13T10:40:18.571Z,76.19
2023-04-13T10:42:53.342Z,76.76
2023-04-13T10:45:28.282Z,77.36
2023-04-13T10:48:01.109Z,77.99
2023-04-13T10:50:34.016Z,78.95
2023-04-13T10:53:07.843Z,78.24
2023-04-13T10:55:40.681Z,77.88
2023-04-13T10:58:17.337Z,76.97
2023-04-13T11:00:50.984Z,76.88
2023-04-13T11:03:23.702Z,76.42
2023-04-13T11:05:57.823Z,75.89
2023-04-13T11:08:30.655Z,71.42
2023-04-13T11:11:03.469Z,74.47
2023-04-13T11:13:45.109Z,75.13
2023-04-13T11:16:17.861Z,74.69
2023-04-13T11:18:50.529Z,73.08
2023-04-13T11:21:23.213Z,69.54
2023-04-13T11:24:01.877Z,69.11
2023-04-13T11:26:35.080Z,72.89
2023-04-13T11:29:18.410Z,73.86
2023-04-13T11:31:51.230Z,72.39
2023-04-13T11:34:25.794Z,69.69
2023-04-13T11:37:02.358Z,71.01
2023-04-13T11:39:36.269Z,71.83
2023-04-13T11:42:09.219Z,70.01
2023-04-13T11:44:45.687Z,69.98
2023-04-13T11:47:19.114Z,67.75
2023-04-13T11:49:51.938Z,62.54
2023-04-13T11:52:24.883Z,66.86
2023-04-13T11:55:00.667Z,57.92
2023-04-13T11:57:41.122Z,62.32
2023-04-13T12:00:20.170Z,63.90
2023-04-13T12:03:01.803Z,59.97
2023-04-13T12:05:36.046Z,60.80
2023-04-13T12:08:09.854Z,62.50
2023-04-13T12:10:51.823Z,59.04
2023-04-13T12:13:52.301Z,62.28
2023-04-13T12:19:16.628Z,56.13
2023-04-13T12:21:55.866Z,58.41
2023-04-13T12:24:33.052Z,64.18
2023-04-13T12:29:41.870Z,67.73
2023-04-13T12:32:16.159Z,62.34
2023-04-13T12:34:49.110Z,62.76
2023-04-13T12:37:21.732Z,56.31
2023-04-13T12:39:54.452Z,58.76
2023-04-13T12:42:27.069Z,61.04
2023-04-13T12:44:59.793Z,60.69
2023-04-13T12:47:33.830Z,56.38
2023-04-13T12:50:08.108Z,59.73
2023-04-13T12:52:42.573Z,59.27
2023-04-13T12:55:15.673Z,60.93
2023-04-13T12:57:48.284Z,60.92
2023-04-13T13:00:21.526Z,62.62
2023-04-13T13:03:06.472Z,63.93
2023-04-13T13:05:45.394Z,63.43
2023-04-13T13:08:18.041Z,63.95
2023-04-13T13:10:50.775Z,65.11
2023-04-13T13:13:23.422Z,66.18
2023-04-13T13:15:56.094Z,66.78
2023-04-13T13:18:35.426Z,68.23
2023-04-13T13:21:20.145Z,69.28
2023-04-13T13:23:52.798Z,69.79
2023-04-13T13:26:30.326Z,71.53
2023-04-13T13:29:08.217Z,70.64
2023-04-13T13:31:41.554Z,70.78
2023-04-13T13:34:15.677Z,70.85
2023-04-13T13:36:48.535Z,71.32
2023-04-13T13:39:22.448Z,71.68
2023-04-13T13:41:55.064Z,71.66
2023-04-13T13:44:27.804Z,71.63
2023-04-13T13:47:01.340Z,72.09
2023-04-13T13:49:35.384Z,72.05
2023-04-13T13:52:08.258Z,71.37
2023-04-13T13:54:41.360Z,71.55
2023-04-13T13:57:14.038Z,71.83
2023-04-13T13:59:49.174Z,71.54
2023-04-13T14:02:22.370Z,72.20
2023-04-13T14:04:56.620Z,71.47
2023-04-13T14:07:29.328Z,71.86
2023-04-13T14:10:01.993Z,72.00
2023-04-13T14:12:34.789Z,71.67
2023-04-13T14:15:08.018Z,71.68
2023-04-13T14:17:41.271Z,72.45
2023-04-13T14:20:16.002Z,72.31
2023-04-13T14:22:48.663Z,72.46
2023-04-13T14:25:21.974Z,72.94
2023-04-13T14:27:54.645Z,73.91
2023-04-13T14:30:28.303Z,72.15
2023-04-13T14:33:01.414Z,72.45
2023-04-13T14:35:35.665Z,72.23
2023-04-13T14:38:09.810Z,72.69
2023-04-13T14:40:42.456Z,72.81
2023-04-13T14:43:16.023Z,71.59
2023-04-13T14:45:48.660Z,72.24
2023-04-13T14:48:21.800Z,73.49
2023-04-13T14:50:55.963Z,73.49
2023-04-13T14:53:28.599Z,72.48
2023-04-13T14:56:01.393Z,71.95
2023-04-13T14:58:34.172Z,71.34
2023-04-13T15:01:16.237Z,70.59
2023-04-13T15:03:49.412Z,69.70
2023-04-13T15:06:25.329Z,70.23
2023-04-13T15:08:58.253Z,69.48
2023-04-13T15:11:31.262Z,66.79
2023-04-13T15:14:03.980Z,70.37
2023-04-13T15:16:37.210Z,70.25
2023-04-13T15:19:09.944Z,60.84
2023-04-13T15:21:44.034Z,60.93
2023-04-13T15:24:16.872Z,64.37
2023-04-13T15:26:50.267Z,64.12
2023-04-13T15:29:25.088Z,63.40
2023-04-13T15:31:59.397Z,61.78
2023-04-13T15:34:32.117Z,62.79
2023-04-13T15:37:06.201Z,63.20
2023-04-13T15:39:38.898Z,63.20
2023-04-13T15:42:11.875Z,64.07
2023-04-13T15:44:44.592Z,62.52
2023-04-13T15:47:17.411Z,62.77
2023-04-13T15:49:50.165Z,63.77
2023-04-13T15:52:24.354Z,63.58
2023-04-13T15:54:57.174Z,64.15
2023-04-13T15:57:29.921Z,64.30
2023-04-13T16:00:02.828Z,65.36
2023-04-13T16:02:35.899Z,65.12
2023-04-13T16:05:09.580Z,66.39
2023-04-13T16:07:43.691Z,66.61
2023-04-13T16:10:16.921Z,66.76
2023-04-13T16:12:50.274Z,67.45
2023-04-13T16:15:24.452Z,68.42
2023-04-13T16:17:57.329Z,69.11
2023-04-13T16:20:30.480Z,69.60
2023-04-13T16:23:05.850Z,69.93
2023-04-13T16:25:39.051Z,70.60
2023-04-13T16:28:11.858Z,70.93
2023-04-13T16:30:44.697Z,71.09
2023-04-13T16:33:17.597Z,71.39
2023-04-13T16:35:50.892Z,71.82
2023-04-13T16:38:25.005Z,72.43
2023-04-13T16:40:57.752Z,72.42
2023-04-13T16:43:30.460Z,72.55
2023-04-13T16:46:03.299Z,72.70
2023-04-13T16:48:35.952Z,72.61
2023-04-13T16:51:08.696Z,73.01
2023-04-13T16:53:44.270Z,73.00
2023-04-13T16:56:17.302Z,73.04
2023-04-13T16:58:50.461Z,73.03
2023-04-13T17:01:25.136Z,73.39
2023-04-13T17:03:58.069Z,73.33
2023-04-13T17:06:31.790Z,73.34
2023-04-13T17:09:06.132Z,73.13
2023-04-13T17:11:38.909Z,73.17
2023-04-13T17:14:11.665Z,73.08
2023-04-13T17:16:44.931Z,73.19
2023-04-13T17:19:19.035Z,73.20
2023-04-13T17:21:52.771Z,73.36
2023-04-13T17:24:27.021Z,73.23
2023-04-13T17:27:00.156Z,73.44
2023-04-13T17:29:35.943Z,73.46
2023-04-13T17:32:08.836Z,73.39
2023-04-13T17:34:41.787Z,73.42
2023-04-13T17:37:14.496Z,73.64
2023-04-13T17:39:51.243Z,73.70
2023-04-13T17:42:24.357Z,73.83
2023-04-13T17:44:58.538Z,73.90
2023-04-13T17:47:31.590Z,73.90
2023-04-13T17:50:04.935Z,74.16
2023-04-13T17:52:37.632Z,73.95
2023-04-13T17:55:13.585Z,74.10
2023-04-13T17:57:46.317Z,74.36
2023-04-13T18:00:19.358Z,74.31
2023-04-13T18:02:52.485Z,74.51
2023-04-13T18:05:25.852Z,74.32
2023-04-13T18:07:58.897Z,74.61
2023-04-13T18:10:32.960Z,74.45
2023-04-13T18:13:05.919Z,74.73
2023-04-13T18:15:38.654Z,74.59
2023-04-13T18:18:11.585Z,74.33
2023-04-13T18:20:45.285Z,74.47
2023-04-13T18:23:17.966Z,74.46
2023-04-13T18:25:52.650Z,74.48
2023-04-13T18:28:25.344Z,74.69
2023-04-13T18:30:59.855Z,74.39
2023-04-13T18:33:32.591Z,74.10
2023-04-13T18:36:05.595Z,74.37
2023-04-13T18:38:38.371Z,74.40
2023-04-13T18:41:12.731Z,74.38
2023-04-13T18:43:45.454Z,74.31
2023-04-13T18:46:18.267Z,74.30
2023-04-13T18:48:51.319Z,74.59
2023-04-13T18:51:23.975Z,74.67
2023-04-13T18:53:57.576Z,74.48
2023-04-13T18:56:31.923Z,74.79
2023-04-13T18:59:05.036Z,74.87
2023-04-13T19:01:38.239Z,74.91
2023-04-13T19:04:11.114Z,74.66
2023-04-13T19:06:44.015Z,75.05
2023-04-13T19:09:16.769Z,75.17
2023-04-13T19:11:51.511Z,75.27
2023-04-13T19:14:24.271Z,75.89
2023-04-13T19:16:57.479Z,75.68
2023-04-13T19:19:30.449Z,75.84
2023-04-13T19:22:03.268Z,75.69
2023-04-13T19:24:36.790Z,75.85
2023-04-13T19:27:10.981Z,75.75
2023-04-13T19:29:44.280Z,75.43
2023-04-13T19:32:17.345Z,75.44
2023-04-13T19:34:50.876Z,75.73
2023-04-13T19:37:23.581Z,75.63
2023-04-13T19:39:56.518Z,75.32
2023-04-13T19:42:31.408Z,75.03
2023-04-13T19:45:04.261Z,75.26
2023-04-13T19:47:37.436Z,75.18
2023-04-13T19:50:11.296Z,75.36
2023-04-13T19:52:47.163Z,75.87
2023-04-13T19:55:20.891Z,76.07
2023-04-13T19:57:55.491Z,75.64
2023-04-13T20:00:29.662Z,75.71
2023-04-13T20:03:04.493Z,76.38
2023-04-13T20:05:38.339Z,76.31
2023-04-13T20:08:11.602Z,76.55
2023-04-13T20:10:44.955Z,76.68
2023-04-13T20:13:19.732Z,76.31
2023-04-13T20:15:52.503Z,76.66
2023-04-13T20:18:25.679Z,76.43
2023-04-13T20:21:00.805Z,76.90
2023-04-13T20:23:34.570Z,76.60
2023-04-13T20:26:07.596Z,76.45
2023-04-13T20:28:41.952Z,76.60
2023-04-13T20:31:16.061Z,76.64
2023-04-13T20:33:49.363Z,76.96
2023-04-13T20:36:24.691Z,76.67
2023-04-13T20:38:59.454Z,77.23
2023-04-13T20:41:33.086Z,77.02
2023-04-13T20:44:10.035Z,76.69
2023-04-13T20:46:49.795Z,76.67
2023-04-13T20:49:25.934Z,76.84
2023-04-13T20:52:02.293Z,76.76
2023-04-13T20:54:35.429Z,76.63
2023-04-13T20:57:09.285Z,76.89
2023-04-13T20:59:43.770Z,76.42
2023-04-13T21:02:16.943Z,76.50
2023-04-13T21:04:49.892Z,76.19
2023-04-13T21:07:23.209Z,76.60
2023-04-13T21:09:55.866Z,76.33
2023-04-13T21:12:30.480Z,76.14
2023-04-13T21:15:04.870Z,76.59
2023-04-13T21:17:38.323Z,76.23
2023-04-13T21:20:11.780Z,76.09
2023-04-13T21:22:44.856Z,76.48
2023-04-13T21:25:17.626Z,76.39
2023-04-13T21:27:50.416Z,76.31
2023-04-13T21:30:24.533Z,76.25
2023-04-13T21:32:57.452Z,75.88
2023-04-13T21:35:30.255Z,76.13
2023-04-13T21:38:05.573Z,75.68
2023-04-13T21:40:38.412Z,75.77
2023-04-13T21:43:11.547Z,75.67
2023-04-13T21:45:45.790Z,75.20
2023-04-13T21:48:18.921Z,75.08
2023-04-13T21:50:52.163Z,75.06
2023-04-13T21:53:25.440Z,75.26
2023-04-13T21:55:58.131Z,75.34
2023-04-13T21:58:38.412Z,74.66
2023-04-13T22:01:13.725Z,74.75
2023-04-13T22:03:47.443Z,75.03
2023-04-13T22:06:20.694Z,74.41
2023-04-13T22:08:54.871Z,74.68
2023-04-13T22:11:27.669Z,74.82
2023-04-13T22:14:01.697Z,74.80
2023-04-13T22:16:35.871Z,75.09
2023-04-13T22:19:08.971Z,74.87
2023-04-13T22:21:41.905Z,74.75
2023-04-13T22:24:16.136Z,74.88
2023-04-13T22:26:49.317Z,75.05
2023-04-13T22:29:22.053Z,75.22
2023-04-13T22:31:56.202Z,75.26
2023-04-13T22:34:29.230Z,75.26
2023-04-13T22:37:01.918Z,75.18
2023-04-13T22:39:34.798Z,75.38
2023-04-13T22:42:07.709Z,75.10
2023-04-13T22:44:40.469Z,74.93
2023-04-13T22:47:14.637Z,75.10
2023-04-13T22:49:47.370Z,75.07
2023-04-13T22:52:20.258Z,75.33
2023-04-13T22:54:53.570Z,75.50
2023-04-13T22:57:26.463Z,75.19
2023-04-13T22:59:59.494Z,75.85
2023-04-13T23:02:34.192Z,75.55
2023-04-13T23:05:07.820Z,75.37
2023-04-13T23:07:40.771Z,75.38
2023-04-13T23:10:15.274Z,75.51
2023-04-13T23:12:49.196Z,75.79
2023-04-13T23:15:21.988Z,75.97
2023-04-13T23:17:56.329Z,76.52
2023-04-13T23:20:29.579Z,76.15
2023-04-13T23:23:02.629Z,76.25
2023-04-13T23:25:35.935Z,76.17
2023-04-13T23:28:09.042Z,76.32
2023-04-13T23:30:42.240Z,76.50
2023-04-13T23:33:17.001Z,76.64
2023-04-13T23:35:52.664Z,77.37
2023-04-13T23:38:25.542Z,77.51
2023-04-13T23:40:58.737Z,76.80
2023-04-13T23:43:32.755Z,77.57
2023-04-13T23:46:05.870Z,76.77
2023-04-13T23:48:39.962Z,77.37
2023-04-13T23:51:12.655Z,76.87
2023-04-13T23:53:45.394Z,76.90
2023-04-13T23:56:18.106Z,76.65
2023-04-13T23:58:51.033Z,77.03
